METAR AND TAF INFORMATION
METAR FOR UATG
ADDS - METARS form results

(0412 UTC 26 August 2019)
Data provider http://aviationweather.gov/metar/data/
 
METAR text: UATG 260400Z 34003MPS 320V040 5000 -SHRA BKN033CB 20/14 Q1018 R32/19//65 NOSIG RMK QFE765/1021
Conditions at: UATG (ATYRAU , KZ) observed 0400 UTC 26 August 2019
Temperature: 20.0°C (68°F)
Dewpoint: 14.0°C (57°F) [RH = 68%]
Pressure (altimeter): 30.06 inches Hg (1018.0 mb)
Winds: from the NNW (340 degrees) at 7 MPH (6 knots; 3.1 m/s)
Visibility: 3 miles ( 5 km)
Ceiling: 3300 feet AGL
Clouds: broken clouds at 3300 feet AGL
Weather: -SHRA  (light rain showers)

METAR text: UATG 260330Z 31005MPS 5000 -SHRA BKN033CB 20/13 Q1018 R32/19//65 NOSIG RMK QFE765/1021
Conditions at: UATG (ATYRAU , KZ) observed 0330 UTC 26 August 2019
Temperature: 20.0°C (68°F)
Dewpoint: 13.0°C (55°F) [RH = 64%]
Pressure (altimeter): 30.06 inches Hg (1018.0 mb)
Winds: from the NW (310 degrees) at 12 MPH (10 knots; 5.1 m/s)
Visibility: 3 miles ( 5 km)
Ceiling: 3300 feet AGL
Clouds: broken clouds at 3300 feet AGL
Weather: -SHRA  (light rain showers)

Forecast for: UATG (ATYRAU , KZ)
Text: TAF UATG 252302Z 2600/2624 36006MPS 9999 BKN030CB TX30/2611Z TN22/2601Z
Forecast period: 0000 to 0600 UTC 26 August 2019
Forecast type: FROM: standard forecast or significant change
Winds: from the N (360 degrees) at 14 MPH (12 knots; 6.2 m/s)
Visibility: 6 or more miles 10+ km)
Ceiling: 3000 feet AGL
Clouds: broken clouds at 3000 feet AGL
Weather: no significant weather forecast for this period
Text: TEMPO 2600/2606 -SHRA
Forecast period: 0000 to 0600 UTC 26 August 2019
Forecast type: TEMPORARY: The following changes expected for less than half the time period
Visibility: missing
Ceiling: unknown
Clouds: missing
Weather: -SHRA  (light rain showers)
Text: BECMG 2606/2608 02010MPS
Forecast period: 0600 UTC 26 August 2019 to 0000 UTC 27 August 2019
Forecast type: BECOMING: Conditions expected to become as follows by 0800 UTC 26 August 2019
Winds: from the NNE (20 degrees) at 22 MPH (19 knots; 9.8 m/s)
Visibility: 6 or more miles 10+ km)
Ceiling: 3000 feet AGL
Clouds: broken clouds at 3000 feet AGL
Weather: no significant weather forecast for this period

 AIRPORT MAP

 RUNWAY INFORMATION

 AIRPORT FREQUENCIES
Type APP Name APP Frequency 123.7 MHZ
Type TWR Name TWR Frequency 118.1 MHZ

 AIRPORT NEAR NAVIGATION AIDS
Type VOR-DME Name Atyrau Frequency 112300 KHZ
Type NDB Name Atyrau Frequency 315 KHZ
Type NDB Name Atyrau Frequency 315 KHZ



2018 Air Astana Virtual Airline